»·PEaware :: N286WF L52-KPSP

N286WF :: L52-KPSP

FLIGHT INFORMATION

Flight Status: Arrived
Operator: Privately registered:
United States
More flights under this callsign
Pilot: Frank W. (16848)
Aircraft: Unknown
(P28U)
More flights by this aircraft type
Origin: L52 Oceano Co
United States
Destination: KPSP Palm Springs Intl
United States
More flights between these airports :: More routes between these airports
Route: RZS FIM POM
File this flight plan on PilotEdge
Remarks:
Altitude:
(Current/Filed)
11,500ft
Speed:
(Current/Filed)
140kts
Departed: 11-May-19 04:08 PM
Arrived: 11-May-19 06:10 PM
Distance/Time
Traveled:
217nm/2:02
Distance/Time
To Go:
Arrived

Flight Plot

Page will automatically refresh every two minutes.


Map Options




Map Legend


Flown Route
Filed Route
Departure Airport
Arrival Airport
Navaid (VOR, NDB)
Fix

Horizontal Profiles

Position Reports

Time Latitude Longitude Heading Altitude Ground
Speed
11-May-19 15:58 35.103337 -120.624454 33 17ft 0kts
11-May-19 15:59 35.103111 -120.624268 131 17ft 0kts
11-May-19 16:00 35.102804 -120.623897 202 17ft 0kts
11-May-19 16:01 35.101234 -120.622677 119 17ft 0kts
11-May-19 16:02 35.099496 -120.619600 355 17ft 3kts
11-May-19 16:03 35.099502 -120.619603 341 17ft 0kts
11-May-19 16:04 35.099502 -120.619603 341 17ft 0kts
11-May-19 16:05 35.099502 -120.619603 341 17ft 0kts
11-May-19 16:06 35.099502 -120.619603 341 17ft 0kts
11-May-19 16:07 35.100662 -120.620722 304 17ft 50kts
11-May-19 16:08 35.106736 -120.639837 248 972ft 88kts
11-May-19 16:09 35.078170 -120.641301 186 2200ft 114kts
11-May-19 16:10 35.067398 -120.660984 59 2260ft 174kts
11-May-19 16:11 35.053801 -120.623544 122 3820ft 131kts
11-May-19 16:12 35.030362 -120.592614 141 4883ft 136kts
11-May-19 16:13 35.004122 -120.560276 134 5956ft 133kts
11-May-19 16:14 34.977636 -120.527642 141 6903ft 138kts
11-May-19 16:15 34.950747 -120.495645 132 7885ft 137kts
11-May-19 16:16 34.922770 -120.464472 116 8889ft 131kts
11-May-19 16:17 34.911120 -120.424700 102 9894ft 124kts
11-May-19 16:18 34.897422 -120.386890 115 10703ft 120kts
11-May-19 16:19 34.876451 -120.353932 121 11419ft 120kts
11-May-19 16:20 34.853927 -120.317256 119 11505ft 142kts
11-May-19 16:21 34.829873 -120.279137 120 11562ft 151kts
11-May-19 16:22 34.804070 -120.237901 120 11338ft 154kts
11-May-19 16:23 34.778783 -120.197522 120 11425ft 145kts
11-May-19 16:24 34.754249 -120.158681 119 11494ft 144kts
11-May-19 16:25 34.730756 -120.121058 120 11622ft 138kts
11-May-19 16:26 34.707477 -120.084155 118 11706ft 139kts
11-May-19 16:27 34.682905 -120.044913 119 11477ft 145kts
11-May-19 16:28 34.658674 -120.006421 120 11476ft 142kts
11-May-19 16:29 34.634689 -119.968570 121 11478ft 141kts
11-May-19 16:30 34.610934 -119.930666 121 11481ft 141kts
11-May-19 16:31 34.587072 -119.893159 122 11484ft 140kts
11-May-19 16:32 34.563263 -119.855631 122 11487ft 140kts
11-May-19 16:33 34.539539 -119.818181 122 11490ft 140kts
11-May-19 16:34 34.515898 -119.780630 122 11493ft 142kts
11-May-19 16:35 34.505841 -119.736450 103 11494ft 138kts
11-May-19 16:36 34.491273 -119.692906 104 11491ft 139kts
11-May-19 16:37 34.484495 -119.647326 97 11494ft 137kts
11-May-19 16:38 34.477250 -119.602012 96 11494ft 137kts
11-May-19 16:39 34.469834 -119.556566 95 11494ft 136kts
11-May-19 16:40 34.462030 -119.510009 94 11084ft 157kts
11-May-19 16:41 34.454263 -119.464405 91 11566ft 135kts
11-May-19 16:42 34.448068 -119.418020 97 11453ft 138kts
11-May-19 16:43 34.439654 -119.374672 92 11636ft 133kts
11-May-19 16:44 34.432473 -119.330445 98 11633ft 136kts
11-May-19 16:45 34.425285 -119.284931 96 11673ft 136kts
11-May-19 16:46 34.417694 -119.240068 94 11699ft 136kts
11-May-19 16:47 34.409910 -119.195628 100 11757ft 134kts
11-May-19 16:48 34.403267 -119.151109 97 11766ft 134kts
11-May-19 16:49 34.394183 -119.106733 101 11773ft 136kts
11-May-19 16:50 34.381915 -119.063165 106 11778ft 137kts
11-May-19 16:51 34.376815 -119.018802 88 11773ft 134kts
11-May-19 16:52 34.373490 -118.973661 93 11774ft 134kts
11-May-19 16:53 34.366833 -118.928384 98 11704ft 137kts
11-May-19 16:54 34.356363 -118.883731 107 11632ft 140kts
11-May-19 16:55 34.342477 -118.839887 103 11595ft 138kts
11-May-19 16:56 34.330546 -118.795543 102 11574ft 138kts
11-May-19 16:57 34.319393 -118.750913 101 11549ft 138kts
11-May-19 16:58 34.308387 -118.706164 101 11516ft 139kts
11-May-19 16:59 34.298413 -118.661324 84 11535ft 132kts
11-May-19 17:00 34.318797 -118.626182 51 11708ft 127kts
11-May-19 17:01 34.338322 -118.589468 53 11586ft 142kts
11-May-19 17:02 34.350499 -118.547414 93 11579ft 137kts
11-May-19 17:03 34.348991 -118.503259 24 11068ft 165kts
11-May-19 17:04 34.346860 -118.492418 183 11345ft 139kts
11-May-19 17:05 34.310937 -118.480511 142 11512ft 144kts
11-May-19 17:06 34.301214 -118.438007 90 11506ft 135kts
11-May-19 17:07 34.285377 -118.395830 138 11496ft 149kts
11-May-19 17:08 34.253131 -118.366018 130 11499ft 146kts
11-May-19 17:10 34.224083 -118.334020 130 11501ft 143kts
11-May-19 17:11 34.196428 -118.300627 121 11501ft 139kts
11-May-19 17:12 34.176493 -118.262129 111 11502ft 136kts
11-May-19 17:13 34.160066 -118.220323 109 11356ft 142kts
11-May-19 17:14 34.148237 -118.173143 94 10202ft 148kts
11-May-19 17:15 34.148530 -118.123298 95 8490ft 142kts
11-May-19 17:16 34.146049 -118.083585 97 8462ft 104kts
11-May-19 17:17 34.157888 -118.061973 7 9237ft 125kts
11-May-19 17:18 34.190814 -118.057432 31 10214ft 114kts
11-May-19 17:19 34.199060 -118.016140 129 8635ft 185kts
11-May-19 17:20 34.177625 -117.976885 144 8927ft 126kts
11-May-19 17:21 34.145311 -117.956662 144 9194ft 133kts
11-May-19 17:22 34.125038 -117.922779 116 9544ft 131kts
11-May-19 17:23 34.110690 -117.884992 110 9540ft 125kts
11-May-19 17:24 34.098442 -117.846945 109 9542ft 124kts
11-May-19 17:25 34.086558 -117.809441 109 9541ft 123kts
11-May-19 17:26 34.063772 -117.788637 210 9534ft 149kts
11-May-19 17:27 34.077312 -117.823015 22 9536ft 138kts
11-May-19 17:28 34.074214 -117.790367 124 9540ft 125kts
11-May-19 17:29 34.058409 -117.755364 108 9537ft 124kts
11-May-19 17:29 34.049900 -117.721271 96 9696ft 135kts
11-May-19 17:31 34.040391 -117.670867 94 10188ft 133kts
11-May-19 17:32 34.021618 -117.633517 126 10811ft 128kts
11-May-19 17:33 33.989133 -117.607740 131 11047ft 144kts
11-May-19 17:34 33.956345 -117.584720 148 11600ft 144kts
11-May-19 17:34 33.924172 -117.568876 152 11571ft 153kts
11-May-19 17:36 33.876157 -117.550783 158 11568ft 156kts
11-May-19 17:36 33.840663 -117.541377 162 11568ft 157kts
11-May-19 17:38 33.805388 -117.516055 70 11566ft 129kts
11-May-19 17:38 33.801509 -117.479274 92 11571ft 133kts
11-May-19 17:39 33.796169 -117.434985 92 11572ft 133kts
11-May-19 17:40 33.790923 -117.390647 92 11573ft 133kts
11-May-19 17:41 33.785825 -117.346571 92 11576ft 133kts
11-May-19 17:42 33.780763 -117.301946 92 11578ft 134kts
11-May-19 17:43 33.781068 -117.258754 66 11559ft 128kts
11-May-19 17:44 33.791103 -117.217925 72 11293ft 127kts
11-May-19 17:45 33.797376 -117.175365 75 10746ft 130kts
11-May-19 17:46 33.800829 -117.131603 78 10227ft 132kts
11-May-19 17:47 33.804658 -117.087495 73 9712ft 131kts
11-May-19 17:48 33.809743 -117.043541 79 9212ft 134kts
11-May-19 17:49 33.813818 -116.999137 74 8726ft 133kts
11-May-19 17:50 33.819247 -116.954387 79 8244ft 135kts
11-May-19 17:51 33.822225 -116.909125 73 7778ft 134kts
11-May-19 17:52 33.828587 -116.865224 79 7883ft 125kts
11-May-19 17:53 33.832069 -116.825470 81 8807ft 115kts
11-May-19 17:54 33.852332 -116.793991 33 8744ft 136kts
11-May-19 17:55 33.888702 -116.776731 11 7578ft 147kts
11-May-19 17:56 33.925239 -116.764250 39 5976ft 101kts
11-May-19 17:57 33.923984 -116.737580 195 5175ft 119kts
11-May-19 17:58 33.911303 -116.773342 281 5118ft 118kts
11-May-19 17:59 33.925285 -116.764383 89 4572ft 126kts
11-May-19 18:00 33.923006 -116.727863 80 3683ft 103kts
11-May-19 18:01 33.920535 -116.692191 102 3451ft 105kts
11-May-19 18:02 33.916660 -116.656401 92 3617ft 111kts
11-May-19 18:03 33.906833 -116.620990 102 3469ft 112kts
11-May-19 18:04 33.898870 -116.583712 98 2733ft 105kts
11-May-19 18:05 33.886886 -116.559000 145 1875ft 84kts
11-May-19 18:06 33.869674 -116.543992 146 1395ft 81kts
11-May-19 18:07 33.852233 -116.528171 142 1078ft 79kts
11-May-19 18:08 33.835256 -116.512638 141 497ft 70kts
11-May-19 18:09 33.826889 -116.507136 113 418ft 2kts

Navigation Log

Ident Type
Flight plan parsing failed, navigation log unavailable